Time;durP1;ratioP1;P1;durP2;ratioP2;P2;SDS_P1;SDS_P2;PMS_P1;PMS_P2;Temp;Humidity;BMP_temperature;BMP_pressure;BME280_temperature;BME280_humidity;BME280_pressure;Samples;Min_cycle;Max_cycle;Signal;HPM_P1;HPM_P2
2021/11/14 00:00:23;;;;;;;;;;;19.00;84.70;;;;;;5094158;28;19908;-66
2021/11/14 00:02:50;;;;;;;;;;;19.20;85.20;;;;;;5094119;28;19917;-66
2021/11/14 00:05:17;;;;;;;;;;;19.30;84.20;;;;;;5094037;28;19962;-66
2021/11/14 00:07:43;;;;;;;;;;;19.50;83.40;;;;;;5093868;28;19915;-66
2021/11/14 00:10:19;;;;;;;;;;;19.70;81.60;;;;;;5093679;28;20004;-68
2021/11/14 00:12:46;;;;;;;;;;;19.50;81.30;;;;;;5093979;28;19919;-67
2021/11/14 00:15:12;;;;;;;;;;;19.60;81.40;;;;;;5093883;28;19908;-67
2021/11/14 00:17:39;;;;;;;;;;;19.70;83.20;;;;;;5093871;28;19916;-65
2021/11/14 00:20:07;;;;;;;;;;;19.90;80.60;;;;;;5093289;28;20415;-69
2021/11/14 00:22:34;;;;;;;;;;;20.00;80.90;;;;;;5092088;28;19908;-66
2021/11/14 00:25:01;;;;;;;;;;;20.10;79.70;;;;;;5093680;28;19980;-68
2021/11/14 00:27:28;;;;;;;;;;;20.30;80.80;;;;;;5093486;28;19916;-69
2021/11/14 00:29:55;;;;;;;;;;;20.30;78.20;;;;;;5093424;28;19908;-71
2021/11/14 00:32:21;;;;;;;;;;;20.30;78.70;;;;;;5078890;28;20406;-68
2021/11/14 00:34:50;;;;;;;;;;;20.30;79.40;;;;;;5072995;28;19915;-69
2021/11/14 00:37:19;;;;;;;;;;;20.50;77.50;;;;;;5072734;28;20034;-71
2021/11/14 00:39:46;;;;;;;;;;;20.40;77.10;;;;;;5072511;28;20286;-70
2021/11/14 00:42:13;;;;;;;;;;;20.70;78.70;;;;;;5072969;28;19908;-67
2021/11/14 00:44:40;;;;;;;;;;;21.10;77.30;;;;;;5072877;28;20358;-71
2021/11/14 00:47:07;;;;;;;;;;;21.20;78.80;;;;;;5072664;28;20066;-70
2021/11/14 00:49:35;;;;;;;;;;;20.70;76.30;;;;;;5073081;28;19966;-69
2021/11/14 00:52:02;;;;;;;;;;;20.80;76.40;;;;;;5072692;28;19909;-70
2021/11/14 00:54:30;;;;;;;;;;;20.80;76.50;;;;;;5072390;28;19962;-71
2021/11/14 00:56:57;;;;;;;;;;;20.90;76.80;;;;;;5071471;28;19974;-70
2021/11/14 00:59:23;;;;;;;;;;;21.10;75.80;;;;;;5072540;28;19928;-66
2021/11/14 01:01:50;;;;;;;;;;;21.80;75.50;;;;;;5072658;28;19995;-70
2021/11/14 01:04:17;;;;;;;;;;;21.90;74.80;;;;;;5072658;28;19909;-69
2021/11/14 01:06:47;;;;;;;;;;;21.60;74.20;;;;;;5071423;28;20292;-70
2021/11/14 01:09:14;;;;;;;;;;;21.40;74.00;;;;;;5071935;28;19909;-70
2021/11/14 01:11:41;;;;;;;;;;;21.40;74.30;;;;;;5072423;28;19909;-71
2021/11/14 01:14:12;;;;;;;;;;;21.30;73.80;;;;;;5072264;28;19909;-70
2021/11/14 01:16:41;;;;;;;;;;;21.30;73.90;;;;;;5072583;28;19948;-69
2021/11/14 01:19:08;;;;;;;;;;;21.40;75.10;;;;;;5072571;28;19950;-70
2021/11/14 01:21:34;;;;;;;;;;;21.90;74.30;;;;;;5072624;28;19908;-69
2021/11/14 01:24:02;;;;;;;;;;;22.10;71.50;;;;;;5071412;28;19996;-67
2021/11/14 01:26:29;;;;;;;;;;;22.30;75.70;;;;;;5072093;28;20015;-70
2021/11/14 01:28:56;;;;;;;;;;;22.60;71.00;;;;;;5072326;28;20001;-67
2021/11/14 01:31:23;;;;;;;;;;;22.30;70.40;;;;;;5072132;28;19908;-66
2021/11/14 01:33:50;;;;;;;;;;;21.70;72.40;;;;;;5071684;28;19912;-69
2021/11/14 01:36:17;;;;;;;;;;;21.40;71.40;;;;;;5072235;28;19908;-69
2021/11/14 01:38:44;;;;;;;;;;;21.20;72.40;;;;;;5071799;28;20043;-68
2021/11/14 01:41:13;;;;;;;;;;;21.20;71.90;;;;;;5071902;28;19966;-70
2021/11/14 01:43:44;;;;;;;;;;;21.20;73.00;;;;;;5072075;28;20001;-68
2021/11/14 01:46:11;;;;;;;;;;;21.20;72.60;;;;;;5071842;28;19913;-70
2021/11/14 01:48:37;;;;;;;;;;;20.90;72.70;;;;;;5072026;28;19920;-69
2021/11/14 01:51:05;;;;;;;;;;;20.70;73.10;;;;;;5074972;28;19991;-70
2021/11/14 01:53:33;;;;;;;;;;;20.60;72.60;;;;;;5075287;28;19908;-70
2021/11/14 01:56:01;;;;;;;;;;;20.30;72.90;;;;;;5075975;28;20014;-69
2021/11/14 01:58:49;;;;;;;;;;;20.30;73.40;;;;;;5075419;28;19917;-70
2021/11/14 02:01:35;;;;;;;;;;;20.40;73.20;;;;;;5075984;28;20058;-66
2021/11/14 02:04:05;;;;;;;;;;;20.40;73.40;;;;;;5075880;28;19915;-67
2021/11/14 02:06:33;;;;;;;;;;;20.50;74.00;;;;;;5087764;22;20044;-70
2021/11/14 02:09:00;;;;;;;;;;;20.40;74.30;;;;;;5095490;28;19950;-70
2021/11/14 02:11:27;;;;;;;;;;;20.40;75.20;;;;;;5096142;28;19908;-67
2021/11/14 02:13:53;;;;;;;;;;;20.40;76.60;;;;;;5095611;28;20262;-70
2021/11/14 02:16:28;;;;;;;;;;;20.50;76.70;;;;;;5096009;28;19991;-70
2021/11/14 02:18:55;;;;;;;;;;;20.70;74.20;;;;;;5096173;28;19916;-70
2021/11/14 02:21:22;;;;;;;;;;;20.80;73.20;;;;;;5095810;28;19997;-70
2021/11/14 02:23:50;;;;;;;;;;;20.90;73.30;;;;;;5093895;28;20061;-70
2021/11/14 02:26:17;;;;;;;;;;;21.00;73.20;;;;;;5095747;28;20347;-70
2021/11/14 02:28:44;;;;;;;;;;;20.90;72.30;;;;;;5095942;28;19934;-71
2021/11/14 02:31:25;;;;;;;;;;;20.90;72.30;;;;;;5095691;28;19908;-70
2021/11/14 02:33:52;;;;;;;;;;;20.90;74.20;;;;;;5095687;28;19994;-69
2021/11/14 02:36:19;;;;;;;;;;;20.90;73.70;;;;;;5094267;28;19961;-71
2021/11/14 02:38:46;;;;;;;;;;;20.90;72.70;;;;;;5095215;28;19908;-71
2021/11/14 02:41:13;;;;;;;;;;;21.00;73.60;;;;;;5095884;28;19908;-70
2021/11/14 02:43:41;;;;;;;;;;;21.10;72.20;;;;;;5094363;28;19908;-71
2021/11/14 02:46:11;;;;;;;;;;;21.10;75.00;;;;;;5095415;28;19916;-70
2021/11/14 02:48:38;;;;;;;;;;;21.10;73.10;;;;;;5095177;28;19975;-70
2021/11/14 02:51:07;;;;;;;;;;;21.10;72.90;;;;;;5095193;28;19912;-70
2021/11/14 02:53:34;;;;;;;;;;;21.30;71.70;;;;;;5094774;28;19908;-69
2021/11/14 02:56:01;;;;;;;;;;;21.40;74.00;;;;;;5094932;28;19912;-69
2021/11/14 02:58:28;;;;;;;;;;;21.50;71.50;;;;;;5094969;28;19912;-68
2021/11/14 03:00:57;;;;;;;;;;;21.50;74.60;;;;;;5094246;28;20004;-70
2021/11/14 03:03:24;;;;;;;;;;;21.40;70.60;;;;;;5093355;28;19908;-71
2021/11/14 03:05:51;;;;;;;;;;;21.20;71.40;;;;;;5094573;28;20014;-69
2021/11/14 03:08:18;;;;;;;;;;;21.10;73.20;;;;;;5094471;28;19946;-66
2021/11/14 03:10:44;;;;;;;;;;;21.10;74.00;;;;;;5094818;28;20290;-69
2021/11/14 03:13:13;;;;;;;;;;;21.00;71.20;;;;;;5094848;28;19935;-67
2021/11/14 03:15:42;;;;;;;;;;;20.90;72.10;;;;;;5094883;28;19912;-67
2021/11/14 03:18:09;;;;;;;;;;;20.80;75.40;;;;;;5094627;28;19908;-66
2021/11/14 03:20:37;;;;;;;;;;;20.90;74.10;;;;;;5094545;28;19908;-66
2021/11/14 03:23:04;;;;;;;;;;;21.10;72.60;;;;;;5094074;28;19908;-67
2021/11/14 03:25:32;;;;;;;;;;;21.20;73.00;;;;;;5094583;28;19923;-67
2021/11/14 03:27:59;;;;;;;;;;;21.20;73.00;;;;;;5094634;28;20412;-67
2021/11/14 03:30:26;;;;;;;;;;;21.30;72.20;;;;;;5094612;28;19908;-69
2021/11/14 03:32:53;;;;;;;;;;;21.30;71.80;;;;;;5094502;28;19931;-71
2021/11/14 03:35:20;;;;;;;;;;;21.20;72.00;;;;;;5094248;28;19908;-70
2021/11/14 03:37:47;;;;;;;;;;;21.30;72.90;;;;;;5093738;28;19916;-71
2021/11/14 03:40:14;;;;;;;;;;;21.30;72.10;;;;;;5094296;28;19915;-71
2021/11/14 03:42:41;;;;;;;;;;;21.30;72.70;;;;;;5094517;28;19998;-70
2021/11/14 03:45:08;;;;;;;;;;;21.50;73.30;;;;;;5094412;28;19908;-68
2021/11/14 03:47:36;;;;;;;;;;;21.50;72.10;;;;;;5094741;28;19915;-69
2021/11/14 03:50:03;;;;;;;;;;;21.50;72.40;;;;;;5093945;28;20294;-69
2021/11/14 03:52:30;;;;;;;;;;;21.50;72.50;;;;;;5093596;28;20013;-69
2021/11/14 03:54:56;;;;;;;;;;;21.60;71.90;;;;;;5094146;28;19961;-69
2021/11/14 03:57:23;;;;;;;;;;;21.50;71.90;;;;;;5093615;28;20339;-67
2021/11/14 03:59:50;;;;;;;;;;;21.50;72.70;;;;;;5093887;28;20511;-66
2021/11/14 04:02:17;;;;;;;;;;;21.60;71.20;;;;;;5093849;28;19916;-66
2021/11/14 04:04:43;;;;;;;;;;;21.50;73.20;;;;;;5093881;28;19915;-67
2021/11/14 04:07:10;;;;;;;;;;;21.50;71.20;;;;;;5093125;28;19920;-67
2021/11/14 04:09:37;;;;;;;;;;;21.50;72.20;;;;;;5093913;28;20035;-67
2021/11/14 04:12:04;;;;;;;;;;;21.60;72.10;;;;;;5093476;28;20277;-67
2021/11/14 04:14:30;;;;;;;;;;;21.60;74.10;;;;;;5093607;28;19908;-67
2021/11/14 04:16:57;;;;;;;;;;;21.60;73.80;;;;;;5093832;28;19912;-66
2021/11/14 04:19:26;;;;;;;;;;;21.80;73.30;;;;;;5093451;28;20421;-66
2021/11/14 04:21:54;;;;;;;;;;;21.70;71.90;;;;;;5092656;28;20337;-66
2021/11/14 04:24:21;;;;;;;;;;;21.60;70.50;;;;;;5093490;28;19909;-67
2021/11/14 04:26:47;;;;;;;;;;;21.50;71.30;;;;;;5092821;28;20015;-66
2021/11/14 04:29:14;;;;;;;;;;;21.50;70.90;;;;;;5093600;28;20326;-67
2021/11/14 04:31:41;;;;;;;;;;;21.50;70.60;;;;;;5094017;28;19911;-69
2021/11/14 04:34:07;;;;;;;;;;;21.40;72.40;;;;;;5093578;28;19912;-67
2021/11/14 04:36:34;;;;;;;;;;;21.40;71.60;;;;;;5093193;28;19908;-66
2021/11/14 04:39:01;;;;;;;;;;;21.30;71.00;;;;;;5093447;28;19952;-66
2021/11/14 04:41:34;;;;;;;;;;;21.30;71.30;;;;;;5093217;28;19912;-67
2021/11/14 04:44:01;;;;;;;;;;;21.30;70.80;;;;;;5108407;28;20417;-66
2021/11/14 04:46:28;;;;;;;;;;;21.20;71.40;;;;;;5091756;28;19916;-66
2021/11/14 04:48:55;;;;;;;;;;;21.10;71.30;;;;;;5091184;28;19944;-66
2021/11/14 04:51:21;;;;;;;;;;;21.00;72.30;;;;;;5090901;28;19908;-67
2021/11/14 04:53:49;;;;;;;;;;;20.80;74.70;;;;;;5091504;28;19908;-68
2021/11/14 04:56:16;;;;;;;;;;;20.60;78.10;;;;;;5092378;28;19908;-66
2021/11/14 04:58:43;;;;;;;;;;;20.50;79.60;;;;;;5092049;28;19908;-67
2021/11/14 05:01:16;;;;;;;;;;;20.40;76.00;;;;;;5092280;28;19912;-67
2021/11/14 05:03:42;;;;;;;;;;;20.30;76.40;;;;;;5093172;28;19908;-66
2021/11/14 05:06:09;;;;;;;;;;;20.40;75.00;;;;;;5092448;28;19962;-67
2021/11/14 05:08:36;;;;;;;;;;;20.40;75.30;;;;;;5092810;28;19919;-66
2021/11/14 05:11:03;;;;;;;;;;;20.50;75.70;;;;;;5108354;28;20407;-66
2021/11/14 05:13:30;;;;;;;;;;;20.50;75.10;;;;;;5092864;28;20349;-69
2021/11/14 05:15:56;;;;;;;;;;;20.60;75.70;;;;;;5092598;28;19950;-67
2021/11/14 05:18:23;;;;;;;;;;;20.60;75.40;;;;;;5092772;28;19953;-68
2021/11/14 05:20:50;;;;;;;;;;;20.60;76.40;;;;;;5092630;28;19912;-68
2021/11/14 05:23:17;;;;;;;;;;;20.70;76.20;;;;;;5092526;28;19998;-67
2021/11/14 05:25:44;;;;;;;;;;;20.80;76.60;;;;;;5091947;28;19956;-68
2021/11/14 05:28:11;;;;;;;;;;;20.90;75.40;;;;;;5092287;28;19916;-66
2021/11/14 05:30:37;;;;;;;;;;;20.90;76.40;;;;;;5092517;28;20333;-66
2021/11/14 05:33:04;;;;;;;;;;;20.90;76.50;;;;;;5092389;28;19908;-68
2021/11/14 05:35:31;;;;;;;;;;;20.90;76.20;;;;;;5092303;28;19931;-67
2021/11/14 05:37:57;;;;;;;;;;;20.90;76.20;;;;;;5092402;28;20045;-67
2021/11/14 05:40:25;;;;;;;;;;;20.90;77.20;;;;;;5092535;28;19916;-67
2021/11/14 05:42:51;;;;;;;;;;;20.90;76.20;;;;;;5092411;28;20366;-67
2021/11/14 05:45:18;;;;;;;;;;;20.90;76.10;;;;;;5092385;28;19915;-67
2021/11/14 05:47:45;;;;;;;;;;;20.90;75.30;;;;;;5092387;28;19912;-67
2021/11/14 05:50:12;;;;;;;;;;;20.90;77.40;;;;;;5092432;28;19912;-67
2021/11/14 05:52:38;;;;;;;;;;;20.90;76.20;;;;;;5092248;28;20262;-67
2021/11/14 05:55:06;;;;;;;;;;;20.90;75.20;;;;;;5092281;28;19930;-68
2021/11/14 05:57:45;;;;;;;;;;;20.90;74.00;;;;;;5092127;28;19908;-67
2021/11/14 06:00:17;;;;;;;;;;;20.90;73.00;;;;;;5092700;28;19916;-67
2021/11/14 06:02:49;;;;;;;;;;;20.80;73.30;;;;;;5092181;28;20380;-67
2021/11/14 06:05:17;;;;;;;;;;;20.80;73.20;;;;;;5092250;28;19908;-67
2021/11/14 06:07:45;;;;;;;;;;;20.90;72.50;;;;;;5092108;28;19924;-67
2021/11/14 06:10:12;;;;;;;;;;;20.80;73.40;;;;;;5092168;28;19908;-68
2021/11/14 06:12:39;;;;;;;;;;;20.70;74.40;;;;;;5092108;28;19908;-67
2021/11/14 06:15:07;;;;;;;;;;;20.70;73.00;;;;;;5092413;28;19999;-68
2021/11/14 06:17:34;;;;;;;;;;;20.60;73.70;;;;;;5092182;28;19955;-67
2021/11/14 06:20:01;;;;;;;;;;;20.60;75.00;;;;;;5091779;28;19908;-67
2021/11/14 06:22:28;;;;;;;;;;;20.50;76.10;;;;;;5091967;28;19920;-70
2021/11/14 06:24:54;;;;;;;;;;;20.40;75.20;;;;;;5092059;28;19912;-68
2021/11/14 06:27:21;;;;;;;;;;;20.40;76.20;;;;;;5092099;28;19916;-67
2021/11/14 06:29:48;;;;;;;;;;;20.30;75.80;;;;;;5091823;28;19912;-68
2021/11/14 06:32:15;;;;;;;;;;;20.30;76.70;;;;;;5090898;28;19908;-67
2021/11/14 06:34:42;;;;;;;;;;;20.20;79.40;;;;;;5091979;28;19908;-67
2021/11/14 06:37:08;;;;;;;;;;;20.10;79.40;;;;;;5095085;28;20038;-67
2021/11/14 06:39:38;;;;;;;;;;;19.90;85.30;;;;;;5095861;28;19958;-66
2021/11/14 06:42:05;;;;;;;;;;;19.70;90.50;;;;;;5095343;28;19908;-67
2021/11/14 06:44:31;;;;;;;;;;;19.00;90.50;;;;;;5095457;28;19909;-66
2021/11/14 06:46:58;;;;;;;;;;;18.30;94.50;;;;;;5095546;28;19920;-67
2021/11/14 06:49:25;;;;;;;;;;;17.70;96.40;;;;;;5095521;28;20335;-66
2021/11/14 06:51:52;;;;;;;;;;;17.40;96.70;;;;;;5095192;28;20294;-65
2021/11/14 06:54:18;;;;;;;;;;;17.20;95.50;;;;;;5095500;28;19915;-66
2021/11/14 06:56:45;;;;;;;;;;;17.20;96.10;;;;;;5095365;28;19915;-67
2021/11/14 06:59:12;;;;;;;;;;;17.10;96.90;;;;;;5095244;28;20351;-66
2021/11/14 07:01:39;;;;;;;;;;;17.10;96.20;;;;;;5095194;28;19915;-66
2021/11/14 07:04:05;;;;;;;;;;;17.00;96.20;;;;;;5094888;28;19985;-66
2021/11/14 07:06:32;;;;;;;;;;;16.90;95.80;;;;;;5094638;28;19935;-66
2021/11/14 07:08:59;;;;;;;;;;;16.80;95.40;;;;;;5095154;28;20006;-66
2021/11/14 07:11:25;;;;;;;;;;;17.00;94.70;;;;;;5094987;28;19912;-66
2021/11/14 07:14:13;;;;;;;;;;;17.00;94.70;;;;;;5094908;28;20355;-71
2021/11/14 07:16:39;;;;;;;;;;;17.00;95.30;;;;;;5094583;28;19955;-68
2021/11/14 07:19:06;;;;;;;;;;;16.80;95.90;;;;;;5102110;22;19924;-71
2021/11/14 07:21:32;;;;;;;;;;;16.80;95.90;;;;;;5094760;28;19912;-71
2021/11/14 07:23:59;;;;;;;;;;;16.80;96.20;;;;;;5094559;28;19908;-71
2021/11/14 07:26:26;;;;;;;;;;;16.80;95.30;;;;;;5094744;28;19923;-71
2021/11/14 07:28:53;;;;;;;;;;;16.80;96.00;;;;;;5093553;28;20002;-70
2021/11/14 07:31:20;;;;;;;;;;;16.80;95.90;;;;;;5094542;28;19947;-71
2021/11/14 07:33:47;;;;;;;;;;;17.00;95.90;;;;;;5094614;28;19908;-68
2021/11/14 07:36:14;;;;;;;;;;;17.00;94.70;;;;;;5094769;28;19908;-71
2021/11/14 07:38:41;;;;;;;;;;;17.00;94.60;;;;;;5094572;28;19908;-70
2021/11/14 07:41:08;;;;;;;;;;;17.10;94.30;;;;;;5094621;28;20061;-72
2021/11/14 07:43:35;;;;;;;;;;;17.10;94.10;;;;;;5094485;28;19915;-71
2021/11/14 07:46:05;;;;;;;;;;;17.20;94.70;;;;;;5094142;28;20011;-71
2021/11/14 07:48:32;;;;;;;;;;;17.30;93.60;;;;;;5093538;28;20082;-70
2021/11/14 07:50:59;;;;;;;;;;;17.30;93.90;;;;;;5094340;28;20421;-69
2021/11/14 07:53:28;;;;;;;;;;;17.40;93.90;;;;;;5094463;28;19908;-71
2021/11/14 07:55:55;;;;;;;;;;;17.30;93.70;;;;;;5094081;28;19953;-70
2021/11/14 07:58:22;;;;;;;;;;;17.30;93.60;;;;;;5094202;28;20002;-71
2021/11/14 08:00:50;;;;;;;;;;;17.10;93.80;;;;;;5094250;28;19919;-71
2021/11/14 08:03:17;;;;;;;;;;;17.10;94.00;;;;;;5093937;28;19943;-71
2021/11/14 08:05:45;;;;;;;;;;;17.10;94.30;;;;;;5094033;28;20003;-71
2021/11/14 08:08:12;;;;;;;;;;;17.10;94.20;;;;;;5094049;28;19995;-71
2021/11/14 08:10:38;;;;;;;;;;;17.20;94.00;;;;;;5093996;28;19978;-71
2021/11/14 08:13:09;;;;;;;;;;;17.10;94.00;;;;;;5094100;28;20362;-71
2021/11/14 08:15:36;;;;;;;;;;;17.10;93.90;;;;;;5093877;28;19919;-71
2021/11/14 08:18:04;;;;;;;;;;;17.10;94.10;;;;;;5092402;28;20296;-71
2021/11/14 08:20:33;;;;;;;;;;;17.10;94.10;;;;;;5093565;28;19919;-71
2021/11/14 08:23:01;;;;;;;;;;;17.10;94.20;;;;;;5093480;28;19916;-71
2021/11/14 08:25:28;;;;;;;;;;;17.10;93.70;;;;;;5092255;28;19940;-72
2021/11/14 08:27:55;;;;;;;;;;;17.00;93.10;;;;;;5093533;28;19908;-71
2021/11/14 08:30:22;;;;;;;;;;;17.10;93.20;;;;;;5093626;28;19963;-72
2021/11/14 08:32:49;;;;;;;;;;;17.10;93.10;;;;;;5092164;28;19908;-72
2021/11/14 08:35:17;;;;;;;;;;;17.10;91.90;;;;;;5093360;28;20351;-71
2021/11/14 08:37:44;;;;;;;;;;;17.00;92.00;;;;;;5076251;28;19999;-71
2021/11/14 08:40:11;;;;;;;;;;;17.00;91.60;;;;;;5072963;28;19908;-70
2021/11/14 08:42:38;;;;;;;;;;;17.00;91.30;;;;;;5072869;28;20278;-72
2021/11/14 08:45:05;;;;;;;;;;;17.00;90.90;;;;;;5072870;28;19909;-72
2021/11/14 08:47:32;;;;;;;;;;;16.90;90.70;;;;;;5072977;28;20366;-71
2021/11/14 08:49:58;;;;;;;;;;;16.90;90.50;;;;;;5072678;28;19912;-72
2021/11/14 08:52:45;;;;;;;;;;;16.90;90.80;;;;;;5072865;28;20431;-72
2021/11/14 08:55:12;;;;;;;;;;;16.80;90.50;;;;;;5072771;28;19908;-71
2021/11/14 08:57:39;;;;;;;;;;;16.60;90.20;;;;;;5088627;28;19931;-72
2021/11/14 09:00:06;;;;;;;;;;;16.60;90.90;;;;;;5081875;22;19931;-71
2021/11/14 09:02:58;;;;;;;;;;;16.50;91.30;;;;;;5092957;28;19912;-72
2021/11/14 09:05:26;;;;;;;;;;;16.50;90.50;;;;;;5092899;28;19943;-72
2021/11/14 09:07:53;;;;;;;;;;;16.50;90.80;;;;;;5092598;28;20082;-72
2021/11/14 09:10:20;;;;;;;;;;;16.50;91.10;;;;;;5092786;28;19923;-73
2021/11/14 09:12:48;;;;;;;;;;;16.30;90.80;;;;;;5099759;22;19946;-72
2021/11/14 09:15:15;;;;;;;;;;;16.30;91.20;;;;;;5092564;28;20425;-72
2021/11/14 09:17:54;;;;;;;;;;;16.30;90.80;;;;;;5092864;28;20001;-71
2021/11/14 09:20:21;;;;;;;;;;;16.30;91.20;;;;;;5092975;28;20007;-72
2021/11/14 09:22:48;;;;;;;;;;;16.30;91.30;;;;;;5092850;28;19908;-72
2021/11/14 09:25:15;;;;;;;;;;;16.30;91.30;;;;;;5092685;28;19915;-72
2021/11/14 09:27:57;;;;;;;;;;;16.30;90.80;;;;;;5092380;28;19943;-72
2021/11/14 09:30:24;;;;;;;;;;;16.20;91.40;;;;;;5108170;28;19962;-72
2021/11/14 09:32:50;;;;;;;;;;;16.20;91.70;;;;;;5092405;28;19988;-72
2021/11/14 09:35:17;;;;;;;;;;;16.10;91.80;;;;;;5092488;28;20354;-71
2021/11/14 09:37:44;;;;;;;;;;;16.00;91.90;;;;;;5092469;28;19912;-69
2021/11/14 09:40:11;;;;;;;;;;;16.00;92.60;;;;;;5092203;28;20011;-68
2021/11/14 09:42:38;;;;;;;;;;;15.90;92.60;;;;;;5092778;28;19912;-71
2021/11/14 09:45:07;;;;;;;;;;;15.90;92.30;;;;;;5092069;28;19912;-70
2021/11/14 09:47:34;;;;;;;;;;;15.90;92.70;;;;;;5092079;28;19969;-72
2021/11/14 09:50:01;;;;;;;;;;;15.80;92.40;;;;;;5092039;28;19919;-71
2021/11/14 09:52:28;;;;;;;;;;;15.90;93.10;;;;;;5092443;28;19908;-72
2021/11/14 09:54:55;;;;;;;;;;;15.90;92.60;;;;;;5092214;28;19919;-71
2021/11/14 09:57:22;;;;;;;;;;;15.80;92.40;;;;;;5092343;28;19998;-68
2021/11/14 09:59:48;;;;;;;;;;;15.90;92.60;;;;;;5091399;28;19908;-69
2021/11/14 10:02:18;;;;;;;;;;;15.80;92.90;;;;;;5092360;28;19953;-70
2021/11/14 10:04:45;;;;;;;;;;;15.80;92.50;;;;;;5092134;28;20258;-70
2021/11/14 10:07:14;;;;;;;;;;;15.80;92.20;;;;;;5092278;28;19942;-71
2021/11/14 10:09:44;;;;;;;;;;;15.80;91.70;;;;;;5092555;28;19957;-72
2021/11/14 10:12:12;;;;;;;;;;;15.80;92.20;;;;;;5095618;28;20385;-69
2021/11/14 10:14:39;;;;;;;;;;;15.80;92.60;;;;;;5095658;28;19960;-71
2021/11/14 10:17:35;;;;;;;;;;;15.70;92.60;;;;;;5095954;28;19958;-70
2021/11/14 10:20:06;;;;;;;;;;;15.70;92.10;;;;;;5082608;28;20273;-68
2021/11/14 10:22:40;;;;;;;;;;;15.60;92.30;;;;;;5095972;28;19919;-71
2021/11/14 10:25:08;;;;;;;;;;;15.70;92.50;;;;;;5096003;28;19912;-72
2021/11/14 10:27:35;;;;;;;;;;;15.70;92.40;;;;;;5103165;22;19974;-71
2021/11/14 10:30:02;;;;;;;;;;;15.70;92.40;;;;;;5095155;28;19908;-68
2021/11/14 10:32:29;;;;;;;;;;;15.70;92.10;;;;;;5095538;28;19954;-70
2021/11/14 10:34:59;;;;;;;;;;;15.70;93.00;;;;;;5094504;28;19991;-71
2021/11/14 10:37:27;;;;;;;;;;;15.80;92.60;;;;;;5095885;28;20008;-73
2021/11/14 10:39:55;;;;;;;;;;;15.70;92.40;;;;;;5095606;28;20325;-71
2021/11/14 10:42:24;;;;;;;;;;;15.70;92.60;;;;;;5095708;28;19912;-70
2021/11/14 10:44:54;;;;;;;;;;;15.70;92.70;;;;;;5095014;28;20380;-70
2021/11/14 10:47:22;;;;;;;;;;;15.70;92.80;;;;;;5095283;28;20392;-68
2021/11/14 10:49:55;;;;;;;;;;;15.80;93.00;;;;;;5095417;28;19915;-70
2021/11/14 10:52:22;;;;;;;;;;;15.70;93.30;;;;;;5095288;28;19912;-69
2021/11/14 10:54:55;;;;;;;;;;;15.60;93.70;;;;;;5095551;28;19908;-69
2021/11/14 10:57:26;;;;;;;;;;;15.60;93.50;;;;;;5095288;28;19912;-70
2021/11/14 10:59:53;;;;;;;;;;;15.50;93.80;;;;;;5094520;28;19909;-72
2021/11/14 11:02:21;;;;;;;;;;;15.40;93.80;;;;;;5094088;28;19921;-71
2021/11/14 11:04:48;;;;;;;;;;;15.30;93.70;;;;;;5095268;28;19915;-70
2021/11/14 11:07:15;;;;;;;;;;;15.40;94.70;;;;;;5095110;28;19963;-71
2021/11/14 11:09:43;;;;;;;;;;;15.30;94.30;;;;;;5095079;28;20319;-71
2021/11/14 11:12:20;;;;;;;;;;;15.30;94.40;;;;;;5094832;28;19919;-71
2021/11/14 11:15:06;;;;;;;;;;;15.30;94.60;;;;;;5094699;28;20274;-70
2021/11/14 11:17:44;;;;;;;;;;;15.20;94.80;;;;;;5095067;28;19917;-71
2021/11/14 11:20:13;;;;;;;;;;;15.20;94.40;;;;;;5094392;28;19909;-72
2021/11/14 11:22:53;;;;;;;;;;;15.30;94.30;;;;;;5094192;28;19966;-70
2021/11/14 11:25:33;;;;;;;;;;;15.20;94.10;;;;;;5094854;28;20003;-71
2021/11/14 11:28:00;;;;;;;;;;;15.10;94.30;;;;;;5093487;28;19920;-70
2021/11/14 11:30:46;;;;;;;;;;;15.10;94.00;;;;;;5094999;28;20278;-69
2021/11/14 11:33:14;;;;;;;;;;;15.10;94.00;;;;;;5094613;28;20007;-68
2021/11/14 11:35:41;;;;;;;;;;;15.20;93.80;;;;;;5094726;28;19961;-69
2021/11/14 11:38:08;;;;;;;;;;;15.20;93.70;;;;;;5093341;28;19908;-67
2021/11/14 11:40:35;;;;;;;;;;;15.20;93.70;;;;;;5094733;28;19916;-71
2021/11/14 11:43:02;;;;;;;;;;;15.20;93.90;;;;;;5094627;28;19947;-71
2021/11/14 11:45:33;;;;;;;;;;;15.10;93.00;;;;;;5094893;28;19912;-70
2021/11/14 11:48:02;;;;;;;;;;;15.10;93.50;;;;;;5094512;28;19931;-68
2021/11/14 11:50:30;;;;;;;;;;;15.10;93.60;;;;;;5094578;28;20385;-68
2021/11/14 11:52:56;;;;;;;;;;;15.10;93.20;;;;;;5094467;28;19908;-71
2021/11/14 11:55:30;;;;;;;;;;;15.10;92.20;;;;;;5094445;28;19954;-70
2021/11/14 11:58:27;;;;;;;;;;;15.20;92.50;;;;;;5094236;28;20038;-71
2021/11/14 12:00:55;;;;;;;;;;;15.20;92.60;;;;;;5092646;28;19919;-69
2021/11/14 12:03:25;;;;;;;;;;;15.20;92.10;;;;;;5094082;28;19973;-69
2021/11/14 12:05:51;;;;;;;;;;;15.10;92.10;;;;;;5093972;28;20361;-69
2021/11/14 12:08:18;;;;;;;;;;;15.10;92.10;;;;;;5093985;28;19919;-69
2021/11/14 12:10:55;;;;;;;;;;;15.20;92.20;;;;;;5096715;28;19908;-67
2021/11/14 12:13:26;;;;;;;;;;;15.10;91.60;;;;;;5094533;28;19931;-66
2021/11/14 12:15:57;;;;;;;;;;;15.20;91.90;;;;;;5111334;22;19925;-67
2021/11/14 12:18:24;;;;;;;;;;;15.20;91.90;;;;;;5094015;28;19912;-67
2021/11/14 12:20:53;;;;;;;;;;;15.20;92.10;;;;;;5096477;28;20002;-66
2021/11/14 12:23:20;;;;;;;;;;;15.20;91.90;;;;;;5094136;28;19908;-67
2021/11/14 12:25:49;;;;;;;;;;;15.20;90.90;;;;;;5093717;28;20333;-68
2021/11/14 12:28:17;;;;;;;;;;;15.20;91.40;;;;;;5093846;28;19912;-66
2021/11/14 12:31:10;;;;;;;;;;;15.30;91.80;;;;;;5093499;28;19953;-66
2021/11/14 12:33:38;;;;;;;;;;;15.30;91.10;;;;;;5093764;28;20273;-66
2021/11/14 12:36:18;;;;;;;;;;;15.30;91.40;;;;;;5093677;28;19908;-69
2021/11/14 12:38:45;;;;;;;;;;;15.30;91.30;;;;;;5093689;28;20385;-67
2021/11/14 12:41:12;;;;;;;;;;;15.20;91.50;;;;;;5093611;28;19916;-69
2021/11/14 12:43:46;;;;;;;;;;;15.20;91.20;;;;;;5093629;28;19908;-66
2021/11/14 12:46:18;;;;;;;;;;;15.20;91.60;;;;;;5093266;28;19969;-67
2021/11/14 12:48:47;;;;;;;;;;;15.10;91.30;;;;;;5093216;28;19920;-66
2021/11/14 12:51:14;;;;;;;;;;;15.10;91.90;;;;;;5093643;28;19999;-66
2021/11/14 12:53:59;;;;;;;;;;;15.10;91.70;;;;;;5093446;28;19912;-66
2021/11/14 12:56:34;;;;;;;;;;;15.00;91.80;;;;;;5093085;28;19912;-66
2021/11/14 12:59:03;;;;;;;;;;;15.10;91.80;;;;;;5093274;28;19987;-67
2021/11/14 13:01:31;;;;;;;;;;;15.00;91.80;;;;;;5093047;28;19908;-66
2021/11/14 13:03:59;;;;;;;;;;;15.10;91.80;;;;;;5093093;28;19908;-68
2021/11/14 13:06:30;;;;;;;;;;;15.10;92.30;;;;;;5092896;28;19920;-67
2021/11/14 13:09:06;;;;;;;;;;;15.10;91.70;;;;;;5093139;28;20349;-70
2021/11/14 13:11:42;;;;;;;;;;;15.10;92.20;;;;;;5092925;28;19919;-67
2021/11/14 13:14:12;;;;;;;;;;;15.10;91.80;;;;;;5092774;28;19908;-66
2021/11/14 13:16:40;;;;;;;;;;;15.10;92.00;;;;;;5092697;28;20363;-67
2021/11/14 13:19:07;;;;;;;;;;;15.10;91.40;;;;;;5092910;28;19950;-68
2021/11/14 13:21:38;;;;;;;;;;;15.10;91.30;;;;;;5093071;28;19931;-67
2021/11/14 13:24:10;;;;;;;;;;;15.10;91.60;;;;;;5092637;28;19920;-67
2021/11/14 13:26:42;;;;;;;;;;;15.10;91.30;;;;;;5092557;28;20014;-67
2021/11/14 13:29:11;;;;;;;;;;;15.10;91.50;;;;;;5092796;28;19908;-66
2021/11/14 13:31:39;;;;;;;;;;;15.10;91.60;;;;;;5092428;28;19960;-71
2021/11/14 13:34:19;;;;;;;;;;;15.20;91.40;;;;;;5092539;28;20045;-67
2021/11/14 13:36:52;;;;;;;;;;;15.10;91.40;;;;;;5092793;28;19934;-67
2021/11/14 13:39:38;;;;;;;;;;;15.10;91.80;;;;;;5092797;28;20451;-66
2021/11/14 13:42:07;;;;;;;;;;;15.10;91.20;;;;;;5091843;28;20396;-66
2021/11/14 13:45:06;;;;;;;;;;;15.10;91.40;;;;;;5092673;28;19908;-66
2021/11/14 13:47:35;;;;;;;;;;;15.10;91.70;;;;;;5062436;28;19927;-66
2021/11/14 13:50:03;;;;;;;;;;;15.10;91.80;;;;;;5096646;28;19908;-66
2021/11/14 13:52:30;;;;;;;;;;;15.10;91.60;;;;;;5096566;28;20251;-66
2021/11/14 13:54:57;;;;;;;;;;;15.10;91.80;;;;;;5096722;28;20255;-67
2021/11/14 13:57:31;;;;;;;;;;;15.10;91.70;;;;;;5096750;28;19953;-67
2021/11/14 13:59:59;;;;;;;;;;;15.10;91.40;;;;;;5096457;28;20019;-66
2021/11/14 14:02:29;;;;;;;;;;;15.10;91.30;;;;;;5096465;28;19943;-66
2021/11/14 14:04:59;;;;;;;;;;;15.10;91.00;;;;;;5096504;28;19994;-66
2021/11/14 14:07:28;;;;;;;;;;;15.00;91.10;;;;;;5096336;28;19916;-67
2021/11/14 14:09:59;;;;;;;;;;;15.00;90.80;;;;;;5096425;28;19999;-66
2021/11/14 14:12:26;;;;;;;;;;;15.00;90.40;;;;;;5096371;28;19908;-66
2021/11/14 14:14:55;;;;;;;;;;;15.10;90.30;;;;;;5096271;28;19916;-65
2021/11/14 14:17:25;;;;;;;;;;;15.10;90.70;;;;;;5096138;28;19908;-66
2021/11/14 14:19:52;;;;;;;;;;;15.10;89.60;;;;;;5095930;28;19908;-66
2021/11/14 14:22:18;;;;;;;;;;;15.00;90.10;;;;;;5096045;28;20345;-65
2021/11/14 14:24:47;;;;;;;;;;;15.10;90.10;;;;;;5096154;28;20002;-65